Buffalo, SD (57720)

12:10 PM MDT on March 23, 2017 (GMT -0600)
Hettinger Municipal | | Change Station

Elev 2703 ft 46.01 °N, 102.66 °W | Updated 17 minutes ago

Rain
Rain
43 °F
Feels Like 37 °F
N
10
Wind Variable Wind from North

Today
High -- | Low -- °F
--% Chance of Precip.
Yesterday
High -- | Low -- °F
Precip. -- in
Pressure 29.78 in
Visibility 7.0 miles
Clouds Mostly Cloudy 1600 ft
Overcast 4500 ft
Windchill 37 °F
Dew Point 39 °F
Humidity 86%
Rainfall 0.04 in
Snow Depth Not available.
6:50 AM 7:11 PM
Waning Crescent, 21% visible
METAR KHEI 231753Z AUTO 36009KT 7SM -RA BKN016 OVC045 06/04 A2973 RMK AO2 RAB49 SLP083 P0000 60004 T00610039 10067 20022 53000
Pressure 29.78 in
Visibility 7.0 miles
Clouds Mostly Cloudy 1600 ft
Overcast 4500 ft
Windchill 37 °F
Dew Point 39 °F
Humidity 86%
Rainfall 0.04 in
Snow Depth Not available.
6:50 AM 7:11 PM
Waning Crescent, 21% visible
METAR KHEI 231753Z AUTO 36009KT 7SM -RA BKN016 OVC045 06/04 A2973 RMK AO2 RAB49 SLP083 P0000 60004 T00610039 10067 20022 53000

Get Severe Weather Alerts

Thanks for signing up!

Be on the lookout for a verification email in your inbox.

You'll start receiving the daily forecast at 8 AM.

×

10-Day Weather Forecast

Almanac

Astronomy

Mar. 23, 2017 Rise Set
Actual Time
Civil Twilight
Nautical Twilight
Astronomical Twilight
Moon
Length of Visible Light
Length of Day
Tomorrow will be .
, % of the Moon is Illuminated

Today's Extremes

State Highs State Lows

Community

WunderPhotos

Upload Photos

1,962,540 photos uploaded!

WunderBlog® & News

Nearby

Air Quality

  Air Quality AQ Index Pollutant
Not available.

Snow Depth

Station Depth Elevation

Earthquake Activity

City Distance Mag. Time & Date
Minimum magnitude displayed is 2.5.

Earthquake Activity

City Distance Mag. Time & Date
Minimum magnitude displayed is 2.5.

Coastal Water Temperatures

Place Temperature

Stations

Nearby Weather Stations

Station Location Temp. Windchill Dew Point Humidity Wind Precip. Elev Updated Type
                   

Watches & Warnings

There are currently no watches in effect.